Time;durP1;ratioP1;P1;durP2;ratioP2;P2;SDS_P1;SDS_P2;PMS_P1;PMS_P2;Temp;Humidity;BMP_temperature;BMP_pressure;BME280_temperature;BME280_humidity;BME280_pressure;Samples;Min_cycle;Max_cycle;Signal;HPM_P1;HPM_P2
2021/04/14 00:01:43;;;;;;;;;;;3.30;84.90;;;;;;5014550;28;20008;-86
2021/04/14 00:04:08;;;;;;;;;;;3.30;85.20;;;;;;5014575;28;19909;-86
2021/04/14 00:06:34;;;;;;;;;;;3.30;85.60;;;;;;5014705;28;19909;-86
2021/04/14 00:09:00;;;;;;;;;;;3.20;85.70;;;;;;5031820;28;19920;-86
2021/04/14 00:11:25;;;;;;;;;;;3.30;85.60;;;;;;5014655;28;20008;-86
2021/04/14 00:13:51;;;;;;;;;;;3.30;85.70;;;;;;5032581;28;19910;-86
2021/04/14 00:16:19;;;;;;;;;;;3.30;86.00;;;;;;5032451;28;19909;-86
2021/04/14 00:18:45;;;;;;;;;;;3.30;86.00;;;;;;5032117;28;20321;-86
2021/04/14 00:21:11;;;;;;;;;;;3.20;86.70;;;;;;5013868;28;19910;-86
2021/04/14 00:23:37;;;;;;;;;;;3.10;86.90;;;;;;5032260;28;19910;-85
2021/04/14 00:26:04;;;;;;;;;;;3.20;86.90;;;;;;5032376;28;19909;-86
2021/04/14 00:28:29;;;;;;;;;;;3.20;87.50;;;;;;5032355;28;19916;-85
2021/04/14 00:30:55;;;;;;;;;;;3.10;86.70;;;;;;5014142;28;19909;-86
2021/04/14 00:33:21;;;;;;;;;;;3.10;86.60;;;;;;5034736;28;19916;-86
2021/04/14 00:35:47;;;;;;;;;;;3.10;86.70;;;;;;5035893;28;19916;-86
2021/04/14 00:38:14;;;;;;;;;;;3.10;86.90;;;;;;5035532;28;19916;-86
2021/04/14 00:40:41;;;;;;;;;;;3.00;87.20;;;;;;5017701;28;19909;-85
2021/04/14 00:43:13;;;;;;;;;;;3.00;87.60;;;;;;5035755;28;19979;-86
2021/04/14 00:45:39;;;;;;;;;;;3.00;87.40;;;;;;5036138;28;19909;-86
2021/04/14 00:48:05;;;;;;;;;;;3.00;87.70;;;;;;5036373;28;20428;-85
2021/04/14 00:50:33;;;;;;;;;;;3.10;87.40;;;;;;5036296;28;19968;-86
2021/04/14 00:52:59;;;;;;;;;;;3.10;87.00;;;;;;5019424;28;20337;-86
2021/04/14 00:55:26;;;;;;;;;;;3.00;87.30;;;;;;5048533;28;19985;-86
2021/04/14 00:57:51;;;;;;;;;;;3.00;87.70;;;;;;5052645;28;19913;-86
2021/04/14 01:00:20;;;;;;;;;;;2.90;87.70;;;;;;5052692;28;20281;-86
2021/04/14 01:02:46;;;;;;;;;;;2.90;87.70;;;;;;5034150;28;19913;-86
2021/04/14 01:05:12;;;;;;;;;;;2.90;87.70;;;;;;5036057;28;19909;-85
2021/04/14 01:07:41;;;;;;;;;;;2.80;87.70;;;;;;5034863;28;19910;-85
2021/04/14 01:10:07;;;;;;;;;;;2.80;87.80;;;;;;5016634;28;19914;-85
2021/04/14 01:12:33;;;;;;;;;;;2.70;88.30;;;;;;5017017;28;20297;-86
2021/04/14 01:15:01;;;;;;;;;;;2.70;88.50;;;;;;5016887;28;19910;-86
2021/04/14 01:17:26;;;;;;;;;;;2.70;88.50;;;;;;5034580;28;19920;-86
2021/04/14 01:19:52;;;;;;;;;;;2.70;88.30;;;;;;5016276;28;19996;-85
2021/04/14 01:22:17;;;;;;;;;;;2.60;88.20;;;;;;5034512;28;20286;-86
2021/04/14 01:24:43;;;;;;;;;;;2.70;88.70;;;;;;5034514;28;19909;-86
2021/04/14 01:27:08;;;;;;;;;;;2.50;89.10;;;;;;5016747;28;19935;-85
2021/04/14 01:29:34;;;;;;;;;;;2.60;88.70;;;;;;5033930;28;20008;-85
2021/04/14 01:31:59;;;;;;;;;;;2.50;89.20;;;;;;5034501;28;20012;-85
2021/04/14 01:34:25;;;;;;;;;;;2.50;89.00;;;;;;5016667;28;19916;-86
2021/04/14 01:36:50;;;;;;;;;;;2.50;88.90;;;;;;5034229;28;19963;-86
2021/04/14 01:39:16;;;;;;;;;;;2.50;89.40;;;;;;5033694;28;19909;-86
2021/04/14 01:41:42;;;;;;;;;;;2.50;89.40;;;;;;5016346;28;19909;-85
2021/04/14 01:44:10;;;;;;;;;;;2.50;89.40;;;;;;5016058;28;19945;-86
2021/04/14 01:46:37;;;;;;;;;;;2.50;89.70;;;;;;5016899;28;19910;-86
2021/04/14 01:49:02;;;;;;;;;;;2.50;90.00;;;;;;5033586;28;19932;-85
2021/04/14 01:51:28;;;;;;;;;;;2.50;89.80;;;;;;5033868;28;20382;-85
2021/04/14 01:53:53;;;;;;;;;;;2.40;90.00;;;;;;5033974;28;19909;-85
2021/04/14 01:56:19;;;;;;;;;;;2.40;90.20;;;;;;5016120;28;19921;-85
2021/04/14 01:58:44;;;;;;;;;;;2.40;90.00;;;;;;5033864;28;19920;-85
2021/04/14 02:01:10;;;;;;;;;;;2.50;89.70;;;;;;5015505;28;19913;-86
2021/04/14 02:03:38;;;;;;;;;;;2.50;89.80;;;;;;5016147;28;19932;-85
2021/04/14 02:06:05;;;;;;;;;;;2.50;89.50;;;;;;5033635;28;19952;-85
2021/04/14 02:08:31;;;;;;;;;;;2.50;89.60;;;;;;5033743;28;19913;-86
2021/04/14 02:10:57;;;;;;;;;;;2.50;89.40;;;;;;5015362;28;19924;-85
2021/04/14 02:13:29;;;;;;;;;;;2.40;89.60;;;;;;5015794;28;19917;-85
2021/04/14 02:15:55;;;;;;;;;;;2.30;89.60;;;;;;5015780;28;20393;-85
2021/04/14 02:18:20;;;;;;;;;;;2.30;90.00;;;;;;5033401;28;19917;-85
2021/04/14 02:20:47;;;;;;;;;;;2.30;89.80;;;;;;5032936;28;20334;-85
2021/04/14 02:23:17;;;;;;;;;;;2.30;90.00;;;;;;5033304;28;19909;-86
2021/04/14 02:25:44;;;;;;;;;;;2.30;90.00;;;;;;5033308;28;20259;-86
2021/04/14 02:28:09;;;;;;;;;;;2.30;90.20;;;;;;5033406;28;20402;-86
2021/04/14 02:30:35;;;;;;;;;;;2.30;90.00;;;;;;5032847;28;19957;-86
2021/04/14 02:33:00;;;;;;;;;;;2.20;90.00;;;;;;5015653;28;19909;-86
2021/04/14 02:35:26;;;;;;;;;;;2.30;90.10;;;;;;5015783;28;19924;-86
2021/04/14 02:37:52;;;;;;;;;;;2.20;90.40;;;;;;5014392;28;19913;-85
2021/04/14 02:40:17;;;;;;;;;;;2.20;90.20;;;;;;5031766;28;19909;-85
2021/04/14 02:42:44;;;;;;;;;;;2.30;90.20;;;;;;5015376;28;19909;-85
2021/04/14 02:45:11;;;;;;;;;;;2.20;90.10;;;;;;5015406;28;19960;-86
2021/04/14 02:47:37;;;;;;;;;;;2.20;90.20;;;;;;5033081;28;19909;-85
2021/04/14 02:50:07;;;;;;;;;;;2.10;90.40;;;;;;5032462;28;20280;-85
2021/04/14 02:52:32;;;;;;;;;;;2.00;90.70;;;;;;5033020;28;19948;-86
2021/04/14 02:54:58;;;;;;;;;;;2.10;90.70;;;;;;5032310;28;19913;-86
2021/04/14 02:57:24;;;;;;;;;;;2.30;90.50;;;;;;5033064;28;19956;-85
2021/04/14 02:59:49;;;;;;;;;;;2.40;90.30;;;;;;5032414;28;19913;-85
2021/04/14 03:02:15;;;;;;;;;;;2.40;90.00;;;;;;5032822;28;20352;-85
2021/04/14 03:04:40;;;;;;;;;;;2.30;90.10;;;;;;5015233;28;19909;-85
2021/04/14 03:07:06;;;;;;;;;;;2.30;90.30;;;;;;5014980;28;19909;-85
2021/04/14 03:09:33;;;;;;;;;;;2.20;90.40;;;;;;5032256;28;19936;-86
2021/04/14 03:11:58;;;;;;;;;;;2.20;90.30;;;;;;5032605;28;19909;-85
2021/04/14 03:14:24;;;;;;;;;;;2.20;90.50;;;;;;5014993;28;20424;-86
2021/04/14 03:16:49;;;;;;;;;;;2.20;90.50;;;;;;5014990;28;20008;-86
2021/04/14 03:19:15;;;;;;;;;;;2.20;90.50;;;;;;5014402;28;20024;-86
2021/04/14 03:21:40;;;;;;;;;;;2.10;90.50;;;;;;5014972;28;19909;-86
2021/04/14 03:26:58;;;;;;;;;;;2.00;90.70;;;;;;5033018;28;20370;-85
2021/04/14 03:29:24;;;;;;;;;;;2.10;90.60;;;;;;5031920;28;20009;-86
2021/04/14 03:31:49;;;;;;;;;;;2.20;90.60;;;;;;5014777;28;19917;-86
2021/04/14 03:34:15;;;;;;;;;;;2.20;90.50;;;;;;5032500;28;20039;-85
2021/04/14 03:36:47;;;;;;;;;;;2.20;90.60;;;;;;5032476;28;19944;-86
2021/04/14 03:39:12;;;;;;;;;;;2.10;90.60;;;;;;5014121;28;19925;-85
2021/04/14 03:41:38;;;;;;;;;;;2.00;90.50;;;;;;5014784;28;19916;-85
2021/04/14 03:44:03;;;;;;;;;;;2.00;90.70;;;;;;5032438;28;19909;-86
2021/04/14 03:46:29;;;;;;;;;;;2.00;90.90;;;;;;5032503;28;20301;-86
2021/04/14 03:48:55;;;;;;;;;;;2.00;90.80;;;;;;5032012;28;19992;-85
2021/04/14 03:51:21;;;;;;;;;;;2.00;90.80;;;;;;5032436;28;19924;-86
2021/04/14 03:53:47;;;;;;;;;;;2.10;90.90;;;;;;5032486;28;19909;-85
2021/04/14 03:56:14;;;;;;;;;;;1.90;90.90;;;;;;5014595;28;19924;-86
2021/04/14 03:58:42;;;;;;;;;;;1.80;91.00;;;;;;5014601;28;19932;-86
2021/04/14 04:01:17;;;;;;;;;;;1.90;91.20;;;;;;5030370;28;19956;-86
2021/04/14 04:03:42;;;;;;;;;;;2.00;90.80;;;;;;5032764;28;19910;-86
2021/04/14 04:06:08;;;;;;;;;;;2.00;90.80;;;;;;5032970;28;19916;-86
2021/04/14 04:08:33;;;;;;;;;;;2.00;90.90;;;;;;5036492;28;19909;-86
2021/04/14 04:10:59;;;;;;;;;;;2.00;91.00;;;;;;5035657;28;20290;-86
2021/04/14 04:13:26;;;;;;;;;;;2.10;91.00;;;;;;5036124;28;19909;-86
2021/04/14 04:15:51;;;;;;;;;;;2.00;91.00;;;;;;5018299;28;19963;-85
2021/04/14 04:18:17;;;;;;;;;;;2.00;91.20;;;;;;5018347;28;20332;-86
2021/04/14 04:20:52;;;;;;;;;;;2.10;91.00;;;;;;5035593;28;19952;-86
2021/04/14 04:23:17;;;;;;;;;;;2.00;90.90;;;;;;5035114;28;20023;-85
2021/04/14 04:25:43;;;;;;;;;;;2.10;91.00;;;;;;5018321;28;20363;-86
2021/04/14 04:28:08;;;;;;;;;;;2.10;90.80;;;;;;5036220;28;19915;-86
2021/04/14 04:30:34;;;;;;;;;;;2.10;90.90;;;;;;5017627;28;20461;-86
2021/04/14 04:33:00;;;;;;;;;;;2.00;91.20;;;;;;5017829;28;19913;-86
2021/04/14 04:35:27;;;;;;;;;;;2.10;91.10;;;;;;5018523;28;19915;-84
2021/04/14 04:37:53;;;;;;;;;;;2.20;91.00;;;;;;5019191;28;20358;-86
2021/04/14 04:40:18;;;;;;;;;;;2.10;91.20;;;;;;5035874;28;19917;-86
2021/04/14 04:42:44;;;;;;;;;;;2.10;91.30;;;;;;5019478;28;19917;-85
2021/04/14 04:45:10;;;;;;;;;;;2.20;91.30;;;;;;5019568;28;19967;-85
2021/04/14 04:47:36;;;;;;;;;;;2.10;91.40;;;;;;5019957;28;19913;-86
2021/04/14 04:50:03;;;;;;;;;;;2.10;91.40;;;;;;5034424;28;19920;-86
2021/04/14 04:52:28;;;;;;;;;;;2.20;91.30;;;;;;5038372;28;19910;-85
2021/04/14 04:54:54;;;;;;;;;;;2.20;91.40;;;;;;5035364;28;19962;-85
2021/04/14 04:57:19;;;;;;;;;;;2.30;91.20;;;;;;5017565;28;19917;-85
2021/04/14 04:59:45;;;;;;;;;;;2.40;91.00;;;;;;5034531;28;19909;-85
2021/04/14 05:02:12;;;;;;;;;;;2.40;91.10;;;;;;5017241;28;19916;-86
2021/04/14 05:04:37;;;;;;;;;;;2.40;91.30;;;;;;5017206;28;19976;-85
2021/04/14 05:07:03;;;;;;;;;;;2.50;91.20;;;;;;5034821;28;20011;-85
2021/04/14 05:09:29;;;;;;;;;;;2.40;91.40;;;;;;5034790;28;20063;-86
2021/04/14 05:11:54;;;;;;;;;;;2.50;91.40;;;;;;5036842;28;19937;-86
2021/04/14 05:14:21;;;;;;;;;;;2.50;91.30;;;;;;5018489;28;19913;-86
2021/04/14 05:16:46;;;;;;;;;;;2.50;91.20;;;;;;5018052;28;19909;-86
2021/04/14 05:19:12;;;;;;;;;;;2.50;91.10;;;;;;5034328;28;19920;-86
2021/04/14 05:21:39;;;;;;;;;;;2.50;91.30;;;;;;5018506;28;19909;-86
2021/04/14 05:27:30;;;;;;;;;;;2.60;90.90;;;;;;5034609;28;19916;-85
2021/04/14 05:29:58;;;;;;;;;;;2.70;91.10;;;;;;5035009;28;20370;-86
2021/04/14 05:32:24;;;;;;;;;;;2.70;91.00;;;;;;5018484;28;19909;-85
2021/04/14 05:34:54;;;;;;;;;;;2.70;91.00;;;;;;5036392;28;19909;-86
2021/04/14 05:37:23;;;;;;;;;;;2.70;91.10;;;;;;5018779;28;19924;-85
2021/04/14 05:39:48;;;;;;;;;;;2.70;90.90;;;;;;5016903;28;19909;-86
2021/04/14 05:42:14;;;;;;;;;;;2.60;91.00;;;;;;5034320;28;19916;-86
2021/04/14 05:44:39;;;;;;;;;;;2.80;91.10;;;;;;5034126;28;19920;-86
2021/04/14 05:47:06;;;;;;;;;;;2.70;91.00;;;;;;5034247;28;19956;-85
2021/04/14 05:49:32;;;;;;;;;;;2.80;90.90;;;;;;5033404;28;19916;-86
2021/04/14 05:51:57;;;;;;;;;;;2.70;91.00;;;;;;5016140;28;19909;-85
2021/04/14 05:54:23;;;;;;;;;;;2.70;91.10;;;;;;5033821;28;19916;-86
2021/04/14 05:56:48;;;;;;;;;;;2.80;90.80;;;;;;5015957;28;20401;-86
2021/04/14 05:59:14;;;;;;;;;;;2.80;90.40;;;;;;5015479;28;19909;-85
2021/04/14 06:01:43;;;;;;;;;;;2.80;90.40;;;;;;5033627;28;19912;-85
2021/04/14 06:04:09;;;;;;;;;;;2.90;90.40;;;;;;5015885;28;19909;-86
2021/04/14 06:06:34;;;;;;;;;;;2.90;90.50;;;;;;5015955;28;19909;-86
2021/04/14 06:09:00;;;;;;;;;;;3.00;90.60;;;;;;5033057;28;20428;-86
2021/04/14 06:11:27;;;;;;;;;;;3.10;90.50;;;;;;5015812;28;19967;-85
2021/04/14 06:13:55;;;;;;;;;;;3.00;90.20;;;;;;5015812;28;19916;-85
2021/04/14 06:16:21;;;;;;;;;;;3.20;90.10;;;;;;5033569;28;19944;-85
2021/04/14 06:18:47;;;;;;;;;;;3.10;89.90;;;;;;5015577;28;20370;-85
2021/04/14 06:21:15;;;;;;;;;;;3.20;89.50;;;;;;5033379;28;19917;-86
2021/04/14 06:23:41;;;;;;;;;;;3.10;89.90;;;;;;5035399;28;20008;-85
2021/04/14 06:28:32;;;;;;;;;;;3.30;90.00;;;;;;5034685;28;19909;-86
2021/04/14 06:30:58;;;;;;;;;;;3.40;90.00;;;;;;5016023;28;19910;-86
2021/04/14 06:33:26;;;;;;;;;;;3.50;90.10;;;;;;5034273;28;20366;-86
2021/04/14 06:35:52;;;;;;;;;;;3.60;90.00;;;;;;5016442;28;19913;-86
2021/04/14 06:38:21;;;;;;;;;;;3.70;89.90;;;;;;5034191;28;19917;-86
2021/04/14 06:43:57;;;;;;;;;;;3.80;90.50;;;;;;5012405;28;19909;-85
2021/04/14 06:46:25;;;;;;;;;;;3.90;90.60;;;;;;5017768;28;20005;-86
2021/04/14 06:49:02;;;;;;;;;;;4.00;90.90;;;;;;5017470;28;20453;-86
2021/04/14 06:51:27;;;;;;;;;;;3.80;91.50;;;;;;5017094;28;20389;-85
2021/04/14 06:54:11;;;;;;;;;;;3.80;91.70;;;;;;5035292;28;19909;-86
2021/04/14 06:56:38;;;;;;;;;;;3.90;92.00;;;;;;5017257;28;19923;-85
2021/04/14 06:59:05;;;;;;;;;;;3.80;92.50;;;;;;5016815;28;19909;-86
2021/04/14 07:01:38;;;;;;;;;;;3.90;92.90;;;;;;5016563;28;20203;-85
2021/04/14 07:04:04;;;;;;;;;;;3.90;93.10;;;;;;5034609;28;19909;-85
2021/04/14 07:06:31;;;;;;;;;;;3.80;93.30;;;;;;5035230;28;19921;-85
2021/04/14 07:09:17;;;;;;;;;;;4.00;93.30;;;;;;5016764;28;19909;-86
2021/04/14 07:11:43;;;;;;;;;;;4.00;93.40;;;;;;5016010;28;20381;-86
2021/04/14 07:14:09;;;;;;;;;;;4.20;93.50;;;;;;5016509;28;19909;-85
2021/04/14 07:17:01;;;;;;;;;;;4.20;93.70;;;;;;5034371;28;19916;-86
2021/04/14 07:19:43;;;;;;;;;;;4.10;94.00;;;;;;5003642;28;19960;-86
2021/04/14 07:22:14;;;;;;;;;;;4.20;94.20;;;;;;5016851;28;19940;-86
2021/04/14 07:24:43;;;;;;;;;;;4.20;94.40;;;;;;5016773;28;20012;-86
2021/04/14 07:27:12;;;;;;;;;;;4.20;94.60;;;;;;5033513;28;19999;-86
2021/04/14 07:29:45;;;;;;;;;;;4.20;94.70;;;;;;5032811;28;19909;-85
2021/04/14 07:32:26;;;;;;;;;;;4.20;94.50;;;;;;5032479;28;19913;-85
2021/04/14 07:35:11;;;;;;;;;;;4.20;94.60;;;;;;5032565;28;20000;-85
2021/04/14 07:37:55;;;;;;;;;;;4.10;94.70;;;;;;5014662;28;19913;-84
2021/04/14 07:40:40;;;;;;;;;;;4.20;94.70;;;;;;5031939;28;19962;-85
2021/04/14 07:43:14;;;;;;;;;;;4.10;91.40;;;;;;5018583;28;19924;-85
2021/04/14 07:45:40;;;;;;;;;;;4.00;92.50;;;;;;5060140;22;19936;-83
2021/04/14 07:48:10;;;;;;;;;;;4.00;91.60;;;;;;5020709;28;19917;-83
2021/04/14 07:50:40;;;;;;;;;;;4.00;92.00;;;;;;5019433;28;20016;-82
2021/04/14 07:53:26;;;;;;;;;;;4.00;92.20;;;;;;5039089;28;19959;-83
2021/04/14 07:56:01;;;;;;;;;;;4.10;92.80;;;;;;5023391;28;19925;-83
2021/04/14 07:58:26;;;;;;;;;;;4.30;92.50;;;;;;5022525;28;19917;-83
2021/04/14 08:00:52;;;;;;;;;;;4.30;92.00;;;;;;5039496;28;19910;-83
2021/04/14 08:03:28;;;;;;;;;;;4.40;93.10;;;;;;5022866;28;20380;-83
2021/04/14 08:06:07;;;;;;;;;;;4.50;92.90;;;;;;5041375;28;19990;-83
2021/04/14 08:08:33;;;;;;;;;;;4.50;92.60;;;;;;5023294;28;19985;-83
2021/04/14 08:11:04;;;;;;;;;;;4.60;92.70;;;;;;5040315;28;20381;-84
2021/04/14 08:13:33;;;;;;;;;;;4.60;91.60;;;;;;5041830;28;19909;-83
2021/04/14 08:16:08;;;;;;;;;;;4.60;91.80;;;;;;5023959;28;19917;-84
2021/04/14 08:18:35;;;;;;;;;;;4.70;92.20;;;;;;5023181;28;19913;-83
2021/04/14 08:21:07;;;;;;;;;;;4.70;91.80;;;;;;5022267;28;19913;-83
2021/04/14 08:23:33;;;;;;;;;;;4.70;91.00;;;;;;5023090;28;19920;-83
2021/04/14 08:26:00;;;;;;;;;;;4.80;90.90;;;;;;5022482;28;19909;-84
2021/04/14 08:28:37;;;;;;;;;;;4.90;91.10;;;;;;5022284;28;19944;-83
2021/04/14 08:31:21;;;;;;;;;;;5.00;90.20;;;;;;5022944;28;19909;-83
2021/04/14 08:33:51;;;;;;;;;;;5.00;90.30;;;;;;5024333;28;19999;-84
2021/04/14 08:36:25;;;;;;;;;;;5.10;90.20;;;;;;5024585;28;19995;-83
2021/04/14 08:38:50;;;;;;;;;;;5.10;90.20;;;;;;5023696;28;19935;-84
2021/04/14 08:41:26;;;;;;;;;;;5.20;90.10;;;;;;5042081;28;20365;-83
2021/04/14 08:43:53;;;;;;;;;;;5.30;89.50;;;;;;5042035;28;19916;-84
2021/04/14 08:46:24;;;;;;;;;;;5.40;88.60;;;;;;5042367;28;20305;-83
2021/04/14 08:48:51;;;;;;;;;;;5.50;85.40;;;;;;5042297;28;19916;-84
2021/04/14 08:51:17;;;;;;;;;;;5.50;83.10;;;;;;5025272;28;19910;-83
2021/04/14 08:53:44;;;;;;;;;;;5.40;82.70;;;;;;5023959;28;19916;-84
2021/04/14 08:56:11;;;;;;;;;;;5.50;83.30;;;;;;5024701;28;19916;-82
2021/04/14 08:58:36;;;;;;;;;;;5.50;84.40;;;;;;5024634;28;19913;-83
2021/04/14 09:01:03;;;;;;;;;;;5.50;82.60;;;;;;5024234;28;19929;-83
2021/04/14 09:03:34;;;;;;;;;;;5.50;83.20;;;;;;5042039;28;19943;-83
2021/04/14 09:06:00;;;;;;;;;;;5.60;82.10;;;;;;5023343;28;19913;-83
2021/04/14 09:08:30;;;;;;;;;;;5.60;82.00;;;;;;5024245;28;19920;-83
2021/04/14 09:11:00;;;;;;;;;;;5.70;83.50;;;;;;5023789;28;20320;-83
2021/04/14 09:13:38;;;;;;;;;;;5.70;83.30;;;;;;5024636;28;19913;-83
2021/04/14 09:16:06;;;;;;;;;;;5.70;83.30;;;;;;5041668;28;19949;-84
2021/04/14 09:18:36;;;;;;;;;;;5.70;83.10;;;;;;5023439;28;19913;-84
2021/04/14 09:21:07;;;;;;;;;;;5.80;82.80;;;;;;5023546;28;20293;-83
2021/04/14 09:23:35;;;;;;;;;;;5.80;83.00;;;;;;5042613;28;19909;-84
2021/04/14 09:26:01;;;;;;;;;;;5.80;83.40;;;;;;5024078;28;19916;-84
2021/04/14 09:28:27;;;;;;;;;;;5.90;83.60;;;;;;5024059;28;19932;-84
2021/04/14 09:30:54;;;;;;;;;;;5.90;83.50;;;;;;5023687;28;20373;-83
2021/04/14 09:33:21;;;;;;;;;;;5.90;83.00;;;;;;5023522;28;20360;-83
2021/04/14 09:35:50;;;;;;;;;;;6.00;81.60;;;;;;5023322;28;19956;-84
2021/04/14 09:38:21;;;;;;;;;;;6.00;82.00;;;;;;5024120;28;19917;-83
2021/04/14 09:40:48;;;;;;;;;;;6.10;81.40;;;;;;5040846;28;19910;-84
2021/04/14 09:43:18;;;;;;;;;;;6.10;81.30;;;;;;5023447;28;19909;-83
2021/04/14 09:45:53;;;;;;;;;;;6.10;81.20;;;;;;5040657;28;20004;-83
2021/04/14 09:48:18;;;;;;;;;;;6.20;80.70;;;;;;5040026;28;19957;-85
2021/04/14 09:50:45;;;;;;;;;;;6.20;81.10;;;;;;5038281;28;19916;-85
2021/04/14 09:53:23;;;;;;;;;;;6.30;81.30;;;;;;5038183;28;19920;-85
2021/04/14 09:56:10;;;;;;;;;;;6.20;79.50;;;;;;5020290;28;19916;-85
2021/04/14 09:58:41;;;;;;;;;;;6.30;78.80;;;;;;5020363;28;19944;-85
2021/04/14 10:01:10;;;;;;;;;;;6.30;77.20;;;;;;5019932;28;19920;-85
2021/04/14 10:03:38;;;;;;;;;;;6.40;76.90;;;;;;5021045;28;20392;-85
2021/04/14 10:06:08;;;;;;;;;;;6.40;77.40;;;;;;5038510;28;19909;-85
2021/04/14 10:08:35;;;;;;;;;;;6.40;76.70;;;;;;5020289;28;20047;-85
2021/04/14 10:11:01;;;;;;;;;;;6.40;76.70;;;;;;5020097;28;19916;-85
2021/04/14 10:13:28;;;;;;;;;;;6.50;77.20;;;;;;5020134;28;19909;-85
2021/04/14 10:15:53;;;;;;;;;;;6.40;75.00;;;;;;5020110;28;20321;-85
2021/04/14 10:18:19;;;;;;;;;;;6.40;75.00;;;;;;5020470;28;19913;-86
2021/04/14 10:20:44;;;;;;;;;;;6.40;75.80;;;;;;5019448;28;19916;-85
2021/04/14 10:23:11;;;;;;;;;;;6.30;76.00;;;;;;5020136;28;19909;-85
2021/04/14 10:25:38;;;;;;;;;;;6.30;76.10;;;;;;5019913;28;19909;-85
2021/04/14 10:28:05;;;;;;;;;;;6.20;74.70;;;;;;5037678;28;19932;-85
2021/04/14 10:30:33;;;;;;;;;;;6.20;75.50;;;;;;5039841;28;19909;-84
2021/04/14 10:33:25;;;;;;;;;;;6.20;75.70;;;;;;5043693;28;20387;-85
2021/04/14 10:35:51;;;;;;;;;;;6.30;76.60;;;;;;5021673;28;19935;-85
2021/04/14 10:38:30;;;;;;;;;;;6.40;75.50;;;;;;5019690;28;19913;-85
2021/04/14 10:40:56;;;;;;;;;;;6.40;75.50;;;;;;5036194;28;19913;-85
2021/04/14 10:43:23;;;;;;;;;;;6.50;75.00;;;;;;5019954;28;19963;-85
2021/04/14 10:45:57;;;;;;;;;;;6.60;75.20;;;;;;5019507;28;19917;-85
2021/04/14 10:48:24;;;;;;;;;;;6.60;75.00;;;;;;5019707;28;19936;-85
2021/04/14 10:50:49;;;;;;;;;;;6.70;74.80;;;;;;5018236;28;19943;-85
2021/04/14 10:53:15;;;;;;;;;;;6.70;74.60;;;;;;5018320;28;19913;-85
2021/04/14 10:55:45;;;;;;;;;;;6.80;72.50;;;;;;5037155;28;20004;-85
2021/04/14 10:58:15;;;;;;;;;;;6.80;73.60;;;;;;5036719;28;19920;-85
2021/04/14 11:00:41;;;;;;;;;;;6.80;73.50;;;;;;5018685;28;19909;-85
2021/04/14 11:03:11;;;;;;;;;;;6.80;73.00;;;;;;5019335;28;19920;-85
2021/04/14 11:05:39;;;;;;;;;;;6.90;70.20;;;;;;5019141;28;19910;-85
2021/04/14 11:08:07;;;;;;;;;;;6.90;67.50;;;;;;5018807;28;20118;-85
2021/04/14 11:10:34;;;;;;;;;;;6.90;65.80;;;;;;5020372;28;19968;-85
2021/04/14 11:13:00;;;;;;;;;;;7.00;66.40;;;;;;5022115;28;19937;-85
2021/04/14 11:15:28;;;;;;;;;;;7.00;67.60;;;;;;5020284;28;19920;-85
2021/04/14 11:17:58;;;;;;;;;;;7.10;68.10;;;;;;5038347;28;19935;-85
2021/04/14 11:20:26;;;;;;;;;;;7.10;67.60;;;;;;5038519;28;19920;-85
2021/04/14 11:22:53;;;;;;;;;;;7.20;68.90;;;;;;5038626;28;20370;-85
2021/04/14 11:25:44;;;;;;;;;;;7.10;67.10;;;;;;5039079;28;19909;-85
2021/04/14 11:28:12;;;;;;;;;;;7.20;67.00;;;;;;5016148;28;19931;-85
2021/04/14 11:30:46;;;;;;;;;;;7.20;66.40;;;;;;5036016;28;19944;-85
2021/04/14 11:33:13;;;;;;;;;;;7.10;66.70;;;;;;5019076;28;19956;-85
2021/04/14 11:35:40;;;;;;;;;;;7.10;66.80;;;;;;5019176;28;19996;-85
2021/04/14 11:38:06;;;;;;;;;;;7.10;69.30;;;;;;5019239;28;19920;-84
2021/04/14 11:40:32;;;;;;;;;;;6.90;79.40;;;;;;5036776;28;20059;-86
2021/04/14 11:42:59;;;;;;;;;;;6.50;84.50;;;;;;5039230;28;20358;-85
2021/04/14 11:45:29;;;;;;;;;;;6.30;87.80;;;;;;5020264;28;19909;-85
2021/04/14 11:48:04;;;;;;;;;;;6.10;90.00;;;;;;5037736;28;19921;-85
2021/04/14 11:50:33;;;;;;;;;;;5.80;90.70;;;;;;5037269;28;19917;-85
2021/04/14 11:52:59;;;;;;;;;;;5.60;91.50;;;;;;5020273;28;19909;-85
2021/04/14 11:55:25;;;;;;;;;;;5.60;92.40;;;;;;5037025;28;19979;-84
2021/04/14 11:58:08;;;;;;;;;;;5.50;92.90;;;;;;5018769;28;19917;-85
2021/04/14 12:00:37;;;;;;;;;;;5.50;93.30;;;;;;5018773;28;20424;-85
2021/04/14 12:03:25;;;;;;;;;;;5.40;93.10;;;;;;5019724;28;20008;-85
2021/04/14 12:05:52;;;;;;;;;;;5.50;93.20;;;;;;5019024;28;19917;-85
2021/04/14 12:08:18;;;;;;;;;;;5.50;92.70;;;;;;5018070;28;19916;-85
2021/04/14 12:10:43;;;;;;;;;;;5.50;92.70;;;;;;5035197;28;19909;-85
2021/04/14 12:13:09;;;;;;;;;;;5.50;93.10;;;;;;5035918;28;19909;-85
2021/04/14 12:15:34;;;;;;;;;;;5.50;92.60;;;;;;5018306;28;20413;-85
2021/04/14 12:18:00;;;;;;;;;;;5.70;92.90;;;;;;5018361;28;19920;-85
2021/04/14 12:20:25;;;;;;;;;;;5.80;92.70;;;;;;5017704;28;19916;-85
2021/04/14 12:22:51;;;;;;;;;;;5.80;92.50;;;;;;5036116;28;19916;-85
2021/04/14 12:25:17;;;;;;;;;;;5.90;91.30;;;;;;5018935;28;19909;-85
2021/04/14 12:27:44;;;;;;;;;;;6.00;90.00;;;;;;5019746;28;20349;-85
2021/04/14 12:30:10;;;;;;;;;;;6.10;90.20;;;;;;5039159;28;20285;-85
2021/04/14 12:32:36;;;;;;;;;;;6.10;90.80;;;;;;5039983;28;19913;-85
2021/04/14 12:35:01;;;;;;;;;;;6.20;89.80;;;;;;5040371;28;19909;-85
2021/04/14 12:37:27;;;;;;;;;;;6.30;89.20;;;;;;5020876;28;19936;-85
2021/04/14 12:39:52;;;;;;;;;;;6.40;88.50;;;;;;5020212;28;19909;-85
2021/04/14 12:42:18;;;;;;;;;;;6.50;89.20;;;;;;5021280;28;20294;-85
2021/04/14 12:44:43;;;;;;;;;;;6.60;85.40;;;;;;5020202;28;20273;-84
2021/04/14 12:47:13;;;;;;;;;;;6.60;82.90;;;;;;5020614;28;19917;-85
2021/04/14 12:49:42;;;;;;;;;;;6.70;80.50;;;;;;5019594;28;19910;-84
2021/04/14 12:52:16;;;;;;;;;;;6.80;82.70;;;;;;5019953;28;19970;-85
2021/04/14 12:54:42;;;;;;;;;;;6.80;81.40;;;;;;5020113;28;19913;-85
2021/04/14 12:57:07;;;;;;;;;;;6.90;78.80;;;;;;5019979;28;20298;-85
2021/04/14 12:59:39;;;;;;;;;;;6.90;78.80;;;;;;5020162;28;19952;-85
2021/04/14 13:02:08;;;;;;;;;;;7.00;76.70;;;;;;5020392;28;19909;-85
2021/04/14 13:04:42;;;;;;;;;;;7.00;79.30;;;;;;5037803;28;20282;-85
2021/04/14 13:07:11;;;;;;;;;;;7.10;79.30;;;;;;5020263;28;19985;-85
2021/04/14 13:09:37;;;;;;;;;;;7.20;79.60;;;;;;5037489;28;19910;-85
2021/04/14 13:12:11;;;;;;;;;;;7.20;77.70;;;;;;5021059;28;19909;-85
2021/04/14 13:14:37;;;;;;;;;;;7.10;74.60;;;;;;5038362;28;20373;-85
2021/04/14 13:17:10;;;;;;;;;;;7.10;73.20;;;;;;5037678;28;19920;-85
2021/04/14 13:19:36;;;;;;;;;;;7.10;74.00;;;;;;5020089;28;20317;-85
2021/04/14 13:22:02;;;;;;;;;;;7.20;73.10;;;;;;5019664;28;19956;-84
2021/04/14 13:24:48;;;;;;;;;;;7.10;72.50;;;;;;5037817;28;19917;-85
2021/04/14 13:27:19;;;;;;;;;;;7.20;73.20;;;;;;5020341;28;19928;-85
2021/04/14 13:29:52;;;;;;;;;;;7.20;74.20;;;;;;5037050;28;19956;-85
2021/04/14 13:32:26;;;;;;;;;;;7.40;71.50;;;;;;5021076;28;19909;-85
2021/04/14 13:35:03;;;;;;;;;;;7.40;70.10;;;;;;5037531;28;19909;-85
2021/04/14 13:37:34;;;;;;;;;;;7.30;69.50;;;;;;5037844;28;19914;-85
2021/04/14 13:39:59;;;;;;;;;;;7.30;70.50;;;;;;5019243;28;19909;-85
2021/04/14 13:42:31;;;;;;;;;;;7.30;70.60;;;;;;5020345;28;20015;-85
2021/04/14 13:45:06;;;;;;;;;;;7.40;71.80;;;;;;5020365;28;19909;-85
2021/04/14 13:47:39;;;;;;;;;;;7.50;71.70;;;;;;5043037;28;19986;-84
2021/04/14 13:50:07;;;;;;;;;;;7.50;70.20;;;;;;5043177;28;19909;-83
2021/04/14 13:52:34;;;;;;;;;;;7.60;69.30;;;;;;5043873;28;19932;-84
2021/04/14 13:54:59;;;;;;;;;;;7.60;66.40;;;;;;5044176;28;19916;-84
2021/04/14 13:57:28;;;;;;;;;;;7.50;68.40;;;;;;5040208;28;19917;-85
2021/04/14 13:59:54;;;;;;;;;;;7.50;69.80;;;;;;5036175;28;19909;-85
2021/04/14 14:02:30;;;;;;;;;;;7.50;70.40;;;;;;5019843;28;19913;-85
2021/04/14 14:04:57;;;;;;;;;;;7.50;70.50;;;;;;5020567;28;19915;-85
2021/04/14 14:07:22;;;;;;;;;;;7.70;70.10;;;;;;5020254;28;19999;-85
2021/04/14 14:10:08;;;;;;;;;;;7.80;68.70;;;;;;5020417;28;20380;-85
2021/04/14 14:12:36;;;;;;;;;;;7.90;69.10;;;;;;5020435;28;19945;-85
2021/04/14 14:15:03;;;;;;;;;;;7.90;67.30;;;;;;5020410;28;19913;-85
2021/04/14 14:17:30;;;;;;;;;;;7.90;69.80;;;;;;5038377;28;19952;-85
2021/04/14 14:20:04;;;;;;;;;;;7.80;69.70;;;;;;5037836;28;20008;-85
2021/04/14 14:22:31;;;;;;;;;;;7.80;70.40;;;;;;5020859;28;20374;-85
2021/04/14 14:24:56;;;;;;;;;;;7.90;71.10;;;;;;5021813;28;19924;-85
2021/04/14 14:27:23;;;;;;;;;;;7.90;70.40;;;;;;5021180;28;19913;-85
2021/04/14 14:29:48;;;;;;;;;;;8.00;71.80;;;;;;5037993;28;19963;-86
2021/04/14 14:32:18;;;;;;;;;;;8.00;69.70;;;;;;5021153;28;20012;-85
2021/04/14 14:34:46;;;;;;;;;;;7.90;67.10;;;;;;5039911;28;19909;-86
2021/04/14 14:37:14;;;;;;;;;;;8.00;68.20;;;;;;5022202;28;20330;-86
2021/04/14 14:39:48;;;;;;;;;;;8.00;67.00;;;;;;5021620;28;19909;-85
2021/04/14 14:42:16;;;;;;;;;;;7.90;64.70;;;;;;5019906;28;20008;-85
2021/04/14 14:44:41;;;;;;;;;;;7.90;63.00;;;;;;5020072;28;19955;-85
2021/04/14 14:47:09;;;;;;;;;;;8.00;63.80;;;;;;5019711;28;19917;-85
2021/04/14 14:49:36;;;;;;;;;;;8.20;61.60;;;;;;5019813;28;19927;-85